createdAt,value
2024-02-19T00:01:32.175Z,59.00
2024-02-19T00:03:59.386Z,59.03
2024-02-19T00:06:26.322Z,57.85
2024-02-19T00:08:53.261Z,58.03
2024-02-19T00:11:20.302Z,56.03
2024-02-19T00:13:47.786Z,53.63
2024-02-19T00:16:16.587Z,61.35
2024-02-19T00:18:43.671Z,53.72
2024-02-19T00:21:13.238Z,58.15
2024-02-19T00:23:40.599Z,61.67
2024-02-19T00:26:08.434Z,58.63
2024-02-19T00:28:35.638Z,57.35
2024-02-19T00:31:03.048Z,56.45
2024-02-19T00:33:32.997Z,52.65
2024-02-19T00:36:00.396Z,60.28
2024-02-19T00:38:27.814Z,58.83
2024-02-19T00:40:55.942Z,58.22
2024-02-19T00:43:25.237Z,55.25
2024-02-19T00:45:53.048Z,64.15
2024-02-19T00:48:20.422Z,67.25
2024-02-19T00:50:47.953Z,66.43
2024-02-19T00:53:17.332Z,57.40
2024-02-19T00:55:44.238Z,56.00
2024-02-19T00:58:12.504Z,65.03
2024-02-19T01:00:39.984Z,62.25
2024-02-19T01:03:07.304Z,65.15
2024-02-19T01:05:34.734Z,60.42
2024-02-19T01:08:01.709Z,63.05
2024-02-19T01:10:29.189Z,60.25
2024-02-19T01:12:56.184Z,57.38
2024-02-19T01:15:23.623Z,64.97
2024-02-19T01:17:51.001Z,63.88
2024-02-19T01:20:18.479Z,59.72
2024-02-19T01:22:47.651Z,66.05
2024-02-19T01:25:14.935Z,72.03
2024-02-19T01:27:43.899Z,69.03
2024-02-19T01:30:11.951Z,57.15
2024-02-19T01:32:40.944Z,77.28
2024-02-19T01:35:11.846Z,63.10
2024-02-19T01:37:42.433Z,63.35
2024-02-19T01:40:11.433Z,61.15
2024-02-19T01:42:39.894Z,54.72
2024-02-19T01:45:29.389Z,61.95
2024-02-19T01:47:59.245Z,60.08
2024-02-19T01:50:30.829Z,61.33
2024-02-19T01:53:00.440Z,54.92
2024-02-19T01:55:28.456Z,53.97
2024-02-19T01:57:57.090Z,56.13
2024-02-19T02:00:25.734Z,46.42
2024-02-19T02:02:53.273Z,49.47
2024-02-19T02:05:20.600Z,44.25
2024-02-19T02:07:49.895Z,49.55
2024-02-19T02:10:16.950Z,49.20
2024-02-19T02:12:44.432Z,47.58
2024-02-19T02:15:12.925Z,46.05
2024-02-19T02:17:41.854Z,45.47
2024-02-19T02:20:09.802Z,46.67
2024-02-19T02:22:38.294Z,44.45
2024-02-19T02:25:06.743Z,49.55
2024-02-19T02:27:35.974Z,45.80
2024-02-19T02:30:07.375Z,47.30
2024-02-19T02:32:37.525Z,41.22
2024-02-19T02:35:05.409Z,38.83
2024-02-19T02:37:35.958Z,41.78
2024-02-19T02:40:03.664Z,37.85
2024-02-19T02:42:31.787Z,30.65
2024-02-19T02:44:58.831Z,30.20
2024-02-19T02:47:26.828Z,27.33
2024-02-19T02:49:54.333Z,28.77
2024-02-19T02:52:21.758Z,28.90
2024-02-19T02:54:49.414Z,30.50
2024-02-19T02:57:18.823Z,23.35
2024-02-19T02:59:46.148Z,25.33
2024-02-19T03:02:14.122Z,25.55
2024-02-19T03:04:45.047Z,24.08
2024-02-19T03:07:13.763Z,22.35
2024-02-19T03:09:43.236Z,26.05
2024-02-19T03:12:10.847Z,24.10
2024-02-19T03:14:38.548Z,20.60
2024-02-19T03:17:05.873Z,24.10
2024-02-19T03:19:35.202Z,22.55
2024-02-19T03:22:06.035Z,24.52
2024-02-19T03:24:33.071Z,21.10
2024-02-19T03:27:05.435Z,22.50
2024-02-19T03:29:33.718Z,24.23
2024-02-19T03:32:01.234Z,23.48
2024-02-19T03:34:29.675Z,20.50
2024-02-19T03:36:57.083Z,24.23
2024-02-19T03:39:25.585Z,23.42
2024-02-19T03:41:53.061Z,23.50
2024-02-19T03:44:20.392Z,25.45
2024-02-19T03:46:47.452Z,25.10
2024-02-19T03:49:15.387Z,25.35
2024-02-19T03:51:42.847Z,26.33
2024-02-19T03:54:14.417Z,23.83
2024-02-19T03:56:41.953Z,26.85
2024-02-19T03:59:09.393Z,27.58
2024-02-19T04:01:40.585Z,24.73
2024-02-19T04:04:09.008Z,27.30
2024-02-19T04:06:38.323Z,24.98
2024-02-19T04:09:05.845Z,24.70
2024-02-19T04:11:33.318Z,25.45
2024-02-19T04:14:00.915Z,24.58
2024-02-19T04:16:28.222Z,25.55
2024-02-19T04:18:55.892Z,24.65
2024-02-19T04:21:23.148Z,21.48
2024-02-19T04:23:51.047Z,23.05
2024-02-19T04:26:20.273Z,22.95
2024-02-19T04:28:48.524Z,22.98
2024-02-19T04:31:21.742Z,20.33
2024-02-19T04:33:49.348Z,21.83
2024-02-19T04:36:16.606Z,23.83
2024-02-19T04:38:44.103Z,19.95
2024-02-19T04:41:12.749Z,20.52
2024-02-19T04:43:40.027Z,20.75
2024-02-19T04:46:08.054Z,21.58
2024-02-19T04:48:41.061Z,19.55
2024-02-19T04:51:12.538Z,21.83
2024-02-19T04:53:40.557Z,19.58
2024-02-19T04:58:43.318Z,22.25
2024-02-19T05:01:10.829Z,21.35
2024-02-19T05:03:37.910Z,19.60
2024-02-19T05:06:06.352Z,22.85
2024-02-19T05:08:33.592Z,20.52
2024-02-19T05:11:01.102Z,19.52
2024-02-19T05:13:29.078Z,21.75
2024-02-19T05:15:57.340Z,19.35
2024-02-19T05:18:26.466Z,20.60
2024-02-19T05:20:57.543Z,20.00
2024-02-19T05:23:25.131Z,23.45
2024-02-19T05:25:52.423Z,22.05
2024-02-19T05:28:19.482Z,20.38
2024-02-19T05:30:47.005Z,23.02
2024-02-19T05:33:19.838Z,20.92
2024-02-19T05:35:48.140Z,21.70
2024-02-19T05:38:16.602Z,21.52
2024-02-19T05:40:43.801Z,22.17
2024-02-19T05:43:11.118Z,21.25
2024-02-19T05:45:38.400Z,23.27
2024-02-19T05:48:06.036Z,24.55
2024-02-19T05:50:36.484Z,22.98
2024-02-19T05:53:03.665Z,21.73
2024-02-19T05:55:32.028Z,22.13
2024-02-19T05:57:59.027Z,21.30
2024-02-19T06:00:26.051Z,22.50
2024-02-19T06:02:53.106Z,21.65
2024-02-19T06:05:22.590Z,21.15
2024-02-19T06:07:50.825Z,20.63
2024-02-19T06:10:18.186Z,20.17
2024-02-19T06:12:45.300Z,21.00
2024-02-19T06:15:12.186Z,22.20
2024-02-19T06:17:39.293Z,20.48
2024-02-19T06:20:07.024Z,22.55
2024-02-19T06:22:36.245Z,21.08
2024-02-19T06:25:03.738Z,21.98
2024-02-19T06:27:31.304Z,22.88
2024-02-19T06:29:58.452Z,21.35
2024-02-19T06:32:26.450Z,18.83
2024-02-19T06:34:53.458Z,19.33
2024-02-19T06:37:20.987Z,19.70
2024-02-19T06:39:48.282Z,21.00
2024-02-19T06:42:16.320Z,21.58
2024-02-19T06:44:43.128Z,21.55
2024-02-19T06:47:10.281Z,22.23
2024-02-19T06:49:39.237Z,21.10
2024-02-19T06:52:06.800Z,21.90
2024-02-19T06:54:55.098Z,25.05
2024-02-19T06:57:46.935Z,21.00
2024-02-19T07:00:17.189Z,19.85
2024-02-19T07:02:45.177Z,21.88
2024-02-19T07:05:16.408Z,21.77
2024-02-19T07:08:01.397Z,18.00
2024-02-19T07:10:36.692Z,20.05
2024-02-19T07:13:19.378Z,19.27
2024-02-19T07:15:47.973Z,19.63
2024-02-19T07:18:17.719Z,21.08
2024-02-19T07:20:46.093Z,21.17
2024-02-19T07:23:13.454Z,18.52
2024-02-19T07:25:40.325Z,20.55
2024-02-19T07:28:07.281Z,18.10
2024-02-19T07:30:38.728Z,18.40
2024-02-19T07:33:08.206Z,18.27
2024-02-19T07:35:40.605Z,17.42
2024-02-19T07:38:12.788Z,17.65
2024-02-19T07:40:40.511Z,17.02
2024-02-19T07:43:07.979Z,17.20
2024-02-19T07:45:43.444Z,16.63
2024-02-19T07:48:12.810Z,17.95
2024-02-19T07:50:41.703Z,15.20
2024-02-19T07:53:09.327Z,15.75
2024-02-19T07:55:40.538Z,14.27
2024-02-19T07:58:07.519Z,12.43
2024-02-19T08:00:34.445Z,12.57
2024-02-19T08:03:01.345Z,12.80
2024-02-19T08:05:33.388Z,12.30
2024-02-19T08:08:01.411Z,10.23
2024-02-19T08:10:32.818Z,11.82
2024-02-19T08:13:04.991Z,9.60
2024-02-19T08:15:40.269Z,7.63
2024-02-19T08:18:08.890Z,8.10
2024-02-19T08:20:38.503Z,8.98
2024-02-19T08:23:20.476Z,8.10
2024-02-19T08:26:15.227Z,8.50
2024-02-19T08:28:45.121Z,7.00
2024-02-19T08:31:12.002Z,7.57
2024-02-19T08:33:40.280Z,7.97
2024-02-19T08:36:10.328Z,7.90
2024-02-19T08:38:46.254Z,9.25
2024-02-19T08:41:15.671Z,10.13
2024-02-19T08:43:46.111Z,9.68
2024-02-19T08:46:17.026Z,11.18
2024-02-19T08:48:44.707Z,11.25
2024-02-19T08:51:12.122Z,10.45
2024-02-19T08:53:40.161Z,11.73
2024-02-19T08:56:17.790Z,11.75
2024-02-19T08:59:08.175Z,14.63
2024-02-19T09:01:42.440Z,14.48
2024-02-19T09:04:09.534Z,15.68
2024-02-19T09:06:44.734Z,14.27
2024-02-19T09:09:12.091Z,14.85
2024-02-19T09:11:41.045Z,14.77
2024-02-19T09:14:10.890Z,15.48
2024-02-19T09:16:40.862Z,15.02
2024-02-19T09:19:22.284Z,13.93
2024-02-19T09:21:50.365Z,13.20
2024-02-19T09:24:21.713Z,14.57
2024-02-19T09:27:05.742Z,12.85
2024-02-19T09:29:46.519Z,13.43
2024-02-19T09:32:16.845Z,14.35
2024-02-19T09:34:47.209Z,12.40
2024-02-19T09:37:17.380Z,13.13
2024-02-19T09:39:51.802Z,11.43
2024-02-19T09:42:21.121Z,12.57
2024-02-19T09:45:20.789Z,12.00
2024-02-19T09:48:07.175Z,11.38
2024-02-19T09:50:44.979Z,11.63
2024-02-19T09:53:23.898Z,11.27
2024-02-19T09:55:52.179Z,9.60
2024-02-19T09:58:19.228Z,9.02
2024-02-19T10:01:09.414Z,9.15
2024-02-19T10:04:01.541Z,8.43
2024-02-19T10:06:52.438Z,8.00
2024-02-19T10:10:01.697Z,8.45
2024-02-19T10:12:45.799Z,8.57
2024-02-19T10:15:13.845Z,7.70
2024-02-19T10:17:42.014Z,7.45
2024-02-19T10:20:13.373Z,7.72
2024-02-19T10:22:40.408Z,7.22
2024-02-19T10:25:21.145Z,6.93
2024-02-19T10:27:50.596Z,6.00
2024-02-19T10:31:08.995Z,6.88
2024-02-19T10:36:41.846Z,5.90
2024-02-19T10:39:10.338Z,7.20
2024-02-19T10:41:55.978Z,4.80
2024-02-19T10:44:24.582Z,4.55
2024-02-19T10:47:01.145Z,4.07
2024-02-19T10:49:59.455Z,4.72
2024-02-19T10:52:41.231Z,3.67
2024-02-19T10:55:32.576Z,5.50
2024-02-19T10:58:18.418Z,3.30
2024-02-19T11:00:49.075Z,2.70
2024-02-19T11:03:19.438Z,3.40
2024-02-19T11:05:49.096Z,2.88
2024-02-19T11:08:20.544Z,3.08
2024-02-19T11:10:53.917Z,2.35
2024-02-19T11:15:51.124Z,1.80
2024-02-19T11:18:20.537Z,1.80
2024-02-19T11:20:48.960Z,1.10
2024-02-19T11:23:17.452Z,2.55
2024-02-19T11:25:49.335Z,1.70
2024-02-19T11:28:16.756Z,2.35
2024-02-19T11:33:26.375Z,1.30
2024-02-19T11:35:58.195Z,1.33
2024-02-19T11:38:33.465Z,1.27
2024-02-19T11:41:02.902Z,2.67
2024-02-19T11:43:32.605Z,2.25
2024-02-19T11:46:00.306Z,14.82
2024-02-19T11:48:27.685Z,1.67
2024-02-19T11:50:54.982Z,0.80
2024-02-19T11:53:25.348Z,1.30
2024-02-19T11:56:03.806Z,1.02
2024-02-19T11:58:31.330Z,2.67
2024-02-19T12:00:59.226Z,1.02
2024-02-19T12:03:30.390Z,1.00
2024-02-19T12:06:02.505Z,1.73
2024-02-19T12:08:34.730Z,0.98
2024-02-19T12:11:01.871Z,2.38
2024-02-19T12:13:29.298Z,0.80
2024-02-19T12:15:58.101Z,1.10
2024-02-19T12:18:26.201Z,1.30
2024-02-19T12:20:53.595Z,1.52
2024-02-19T12:23:22.252Z,1.45
2024-02-19T12:25:49.436Z,1.65
2024-02-19T12:28:16.530Z,1.83
2024-02-19T12:30:43.887Z,2.00
2024-02-19T12:33:18.073Z,2.00
2024-02-19T12:35:54.319Z,1.90
2024-02-19T12:38:23.763Z,1.55
2024-02-19T12:40:51.769Z,3.22
2024-02-19T12:43:20.344Z,7.88
2024-02-19T12:45:51.635Z,2.63
2024-02-19T12:48:30.360Z,2.97
2024-02-19T12:51:02.619Z,4.97
2024-02-19T12:53:32.478Z,2.88
2024-02-19T12:55:59.515Z,3.70
2024-02-19T12:58:31.135Z,5.03
2024-02-19T13:00:58.531Z,4.65
2024-02-19T13:03:26.058Z,3.47
2024-02-19T13:05:55.676Z,8.70
2024-02-19T13:08:22.825Z,9.27
2024-02-19T13:10:51.244Z,19.08
2024-02-19T13:13:19.666Z,5.13
2024-02-19T13:15:50.664Z,3.47
2024-02-19T13:18:18.471Z,5.00
2024-02-19T13:20:45.956Z,5.03
2024-02-19T13:23:13.267Z,7.05
2024-02-19T13:25:40.139Z,7.20
2024-02-19T13:28:07.755Z,5.63
2024-02-19T13:30:35.066Z,3.58
2024-02-19T13:33:07.697Z,8.43
2024-02-19T13:35:35.670Z,12.50
2024-02-19T13:38:05.614Z,6.07
2024-02-19T13:40:32.999Z,18.05
2024-02-19T13:43:00.220Z,20.77
2024-02-19T13:45:49.914Z,14.45
2024-02-19T13:48:22.735Z,16.73
2024-02-19T13:50:49.979Z,14.77
2024-02-19T13:53:17.206Z,10.05
2024-02-19T13:55:44.634Z,4.03
2024-02-19T13:58:12.542Z,6.40
2024-02-19T14:00:39.862Z,4.20
2024-02-19T14:03:10.261Z,6.40
2024-02-19T14:05:38.531Z,3.22
2024-02-19T14:08:09.592Z,3.80
2024-02-19T14:10:38.531Z,27.95
2024-02-19T14:13:07.004Z,2.60
2024-02-19T14:15:34.421Z,2.25
2024-02-19T14:18:01.857Z,2.78
2024-02-19T14:20:32.686Z,2.33
2024-02-19T14:22:59.442Z,3.30
2024-02-19T14:25:27.252Z,3.17
2024-02-19T14:27:56.470Z,2.13
2024-02-19T14:30:24.853Z,2.05
2024-02-19T14:32:53.840Z,2.47
2024-02-19T14:35:22.138Z,1.70
2024-02-19T14:37:49.481Z,1.95
2024-02-19T14:40:20.603Z,4.22
2024-02-19T14:42:51.783Z,2.88
2024-02-19T14:45:19.082Z,14.77
2024-02-19T14:47:49.605Z,4.18
2024-02-19T14:50:17.485Z,3.55
2024-02-19T14:52:45.683Z,1.38
2024-02-19T14:55:15.369Z,1.95
2024-02-19T14:57:45.470Z,1.30
2024-02-19T15:00:18.133Z,2.60
2024-02-19T15:02:46.485Z,1.43
2024-02-19T15:05:13.662Z,1.80
2024-02-19T15:07:42.995Z,1.75
2024-02-19T15:10:15.908Z,1.50
2024-02-19T15:12:44.619Z,2.25
2024-02-19T15:17:54.704Z,18.45
2024-02-19T15:20:23.365Z,3.25
2024-02-19T15:22:51.793Z,2.25
2024-02-19T15:25:19.163Z,2.03
2024-02-19T15:27:48.045Z,1.70
2024-02-19T15:30:16.419Z,1.58
2024-02-19T15:32:43.448Z,2.03
2024-02-19T15:35:10.632Z,1.60
2024-02-19T15:37:37.825Z,1.90
2024-02-19T15:40:06.947Z,15.98
2024-02-19T15:42:38.105Z,2.58
2024-02-19T15:45:06.050Z,2.90
2024-02-19T15:47:33.335Z,2.83
2024-02-19T15:50:01.333Z,3.08
2024-02-19T15:52:30.586Z,3.50
2024-02-19T15:54:57.843Z,5.25
2024-02-19T15:57:26.318Z,2.08
2024-02-19T15:59:53.402Z,1.98
2024-02-19T16:02:20.864Z,2.67
2024-02-19T16:04:47.873Z,3.53
2024-02-19T16:07:17.021Z,1.98
2024-02-19T16:09:45.176Z,2.50
2024-02-19T16:12:12.625Z,2.88
2024-02-19T16:14:41.175Z,2.60
2024-02-19T16:17:10.879Z,3.38
2024-02-19T16:19:39.108Z,3.00
2024-02-19T16:22:07.364Z,3.80
2024-02-19T16:24:35.945Z,2.45
2024-02-19T16:27:07.170Z,3.65
2024-02-19T16:29:34.274Z,6.72
2024-02-19T16:32:02.210Z,4.18
2024-02-19T16:34:31.882Z,3.22
2024-02-19T16:37:01.316Z,2.40
2024-02-19T16:39:29.704Z,2.17
2024-02-19T16:41:57.366Z,2.20
2024-02-19T16:44:26.443Z,4.13
2024-02-19T16:46:53.623Z,4.47
2024-02-19T16:49:20.884Z,4.28
2024-02-19T16:51:49.342Z,3.42
2024-02-19T16:54:21.372Z,5.57
2024-02-19T16:56:49.737Z,4.70
2024-02-19T16:59:17.077Z,6.95
2024-02-19T17:01:46.967Z,5.07
2024-02-19T17:04:14.002Z,4.85
2024-02-19T17:06:43.744Z,4.05
2024-02-19T17:09:11.163Z,5.65
2024-02-19T17:11:38.267Z,5.03
2024-02-19T17:14:05.551Z,4.90
2024-02-19T17:16:34.877Z,5.50
2024-02-19T17:19:05.758Z,5.90
2024-02-19T17:21:33.090Z,8.23
2024-02-19T17:24:01.277Z,7.68
2024-02-19T17:26:30.746Z,6.60
2024-02-19T17:29:00.184Z,7.47
2024-02-19T17:31:29.458Z,24.30
2024-02-19T17:33:56.763Z,4.97
2024-02-19T17:36:23.957Z,7.03
2024-02-19T17:38:51.496Z,5.68
2024-02-19T17:41:18.763Z,9.18
2024-02-19T17:43:48.473Z,4.07
2024-02-19T17:46:18.757Z,7.07
2024-02-19T17:48:47.636Z,5.13
2024-02-19T17:51:22.863Z,3.90
2024-02-19T17:53:53.647Z,3.50
2024-02-19T17:56:20.899Z,5.38
2024-02-19T17:58:48.885Z,5.18
2024-02-19T18:01:16.840Z,4.80
2024-02-19T18:03:44.815Z,11.93
2024-02-19T18:06:12.640Z,5.05
2024-02-19T18:08:40.915Z,5.63
2024-02-19T18:11:08.814Z,17.73
2024-02-19T18:13:36.562Z,10.80
2024-02-19T18:16:03.939Z,5.35
2024-02-19T18:18:35.221Z,5.05
2024-02-19T18:21:02.264Z,4.50
2024-02-19T18:23:30.125Z,4.63
2024-02-19T18:25:57.711Z,6.55
2024-02-19T18:28:26.348Z,5.10
2024-02-19T18:30:55.438Z,6.82
2024-02-19T18:33:26.880Z,5.22
2024-02-19T18:35:54.108Z,5.28
2024-02-19T18:38:22.005Z,5.25
2024-02-19T18:40:49.477Z,5.25
2024-02-19T18:43:19.523Z,4.25
2024-02-19T18:45:47.312Z,5.45
2024-02-19T18:48:14.597Z,5.28
2024-02-19T18:50:41.872Z,6.65
2024-02-19T18:53:10.396Z,8.60
2024-02-19T18:55:37.303Z,12.38
2024-02-19T18:58:04.342Z,4.85
2024-02-19T19:00:33.794Z,7.13
2024-02-19T19:03:02.271Z,5.75
2024-02-19T19:05:29.238Z,5.22
2024-02-19T19:07:56.581Z,6.45
2024-02-19T19:10:24.661Z,5.20
2024-02-19T19:12:51.725Z,5.47
2024-02-19T19:15:18.594Z,5.65
2024-02-19T19:17:46.401Z,6.13
2024-02-19T19:20:14.666Z,5.00
2024-02-19T19:22:42.300Z,5.00
2024-02-19T19:25:10.694Z,5.05
2024-02-19T19:27:38.026Z,4.90
2024-02-19T19:30:05.890Z,5.00
2024-02-19T19:32:36.080Z,4.82
2024-02-19T19:35:03.893Z,6.63
2024-02-19T19:37:31.220Z,6.53
2024-02-19T19:39:59.216Z,5.53
2024-02-19T19:42:26.927Z,4.57
2024-02-19T19:44:56.108Z,5.85
2024-02-19T19:47:23.937Z,3.97
2024-02-19T19:49:52.471Z,4.72
2024-02-19T19:52:19.854Z,4.60
2024-02-19T19:54:47.652Z,4.80
2024-02-19T19:57:15.147Z,4.35
2024-02-19T19:59:52.152Z,4.93
2024-02-19T20:02:19.257Z,5.55
2024-02-19T20:04:52.744Z,4.40
2024-02-19T20:07:20.478Z,3.63
2024-02-19T20:09:48.078Z,5.28
2024-02-19T20:12:15.292Z,4.63
2024-02-19T20:14:42.507Z,5.30
2024-02-19T20:17:09.901Z,4.43
2024-02-19T20:19:42.537Z,4.10
2024-02-19T20:22:11.620Z,4.73
2024-02-19T20:24:41.920Z,4.95
2024-02-19T20:27:09.204Z,4.65
2024-02-19T20:29:36.465Z,7.20
2024-02-19T20:32:05.729Z,5.75
2024-02-19T20:34:35.846Z,6.15
2024-02-19T20:37:03.020Z,5.32
2024-02-19T20:39:32.052Z,5.60
2024-02-19T20:41:59.484Z,6.35
2024-02-19T20:44:28.523Z,5.22
2024-02-19T20:46:56.685Z,4.93
2024-02-19T20:49:25.278Z,5.40
2024-02-19T20:51:52.334Z,6.13
2024-02-19T20:54:20.327Z,6.07
2024-02-19T20:56:50.680Z,6.50
2024-02-19T20:59:17.702Z,6.35
2024-02-19T21:01:47.814Z,5.60
2024-02-19T21:04:14.993Z,5.95
2024-02-19T21:06:42.350Z,5.68
2024-02-19T21:09:09.350Z,7.40
2024-02-19T21:11:36.325Z,7.25
2024-02-19T21:16:45.685Z,5.45
2024-02-19T21:19:13.743Z,6.90
2024-02-19T21:21:41.132Z,8.60
2024-02-19T21:24:11.535Z,9.38
2024-02-19T21:26:38.515Z,6.15
2024-02-19T21:29:05.614Z,5.50
2024-02-19T21:31:32.668Z,4.75
2024-02-19T21:34:00.723Z,5.35
2024-02-19T21:36:27.957Z,4.28
2024-02-19T21:38:56.011Z,4.07
2024-02-19T21:41:24.566Z,3.97
2024-02-19T21:43:51.768Z,4.28
2024-02-19T21:46:19.933Z,6.15
2024-02-19T21:48:47.424Z,5.28
2024-02-19T21:51:14.683Z,4.13
2024-02-19T21:53:42.743Z,3.38
2024-02-19T21:56:10.408Z,2.83
2024-02-19T21:58:38.390Z,4.50
2024-02-19T22:01:15.696Z,2.83
2024-02-19T22:03:43.854Z,2.97
2024-02-19T22:06:12.935Z,4.22
2024-02-19T22:08:40.821Z,5.68
2024-02-19T22:11:08.382Z,3.05
2024-02-19T22:13:35.856Z,3.28
2024-02-19T22:16:05.450Z,3.13
2024-02-19T22:18:38.103Z,4.55
2024-02-19T22:21:05.509Z,3.80
2024-02-19T22:23:32.705Z,3.58
2024-02-19T22:26:00.184Z,2.13
2024-02-19T22:28:27.061Z,2.53
2024-02-19T22:30:54.003Z,2.65
2024-02-19T22:33:22.053Z,3.55
2024-02-19T22:35:49.363Z,3.47
2024-02-19T22:38:18.449Z,4.40
2024-02-19T22:40:45.710Z,3.22
2024-02-19T22:43:14.098Z,4.03
2024-02-19T22:45:41.584Z,2.67
2024-02-19T22:48:10.382Z,3.47
2024-02-19T22:50:39.142Z,3.75
2024-02-19T22:53:07.493Z,4.65
2024-02-19T22:55:34.919Z,4.18
2024-02-19T22:58:02.449Z,4.85
2024-02-19T23:00:36.411Z,3.70
2024-02-19T23:03:05.000Z,2.35
2024-02-19T23:05:33.450Z,2.15
2024-02-19T23:08:02.270Z,3.15
2024-02-19T23:10:29.965Z,4.45
2024-02-19T23:13:00.251Z,4.70
2024-02-19T23:15:27.175Z,3.70
2024-02-19T23:17:54.597Z,2.67
2024-02-19T23:20:22.671Z,3.33
2024-02-19T23:22:49.794Z,3.92
2024-02-19T23:25:17.259Z,3.53
2024-02-19T23:27:44.493Z,2.78
2024-02-19T23:30:12.570Z,3.42
2024-02-19T23:32:40.493Z,3.58
2024-02-19T23:35:08.353Z,2.53
2024-02-19T23:37:35.490Z,4.88
2024-02-19T23:40:02.561Z,5.28
2024-02-19T23:42:29.761Z,2.05
2024-02-19T23:44:58.676Z,4.32
2024-02-19T23:47:25.677Z,4.20
2024-02-19T23:49:53.656Z,2.92
2024-02-19T23:52:21.731Z,3.60
2024-02-19T23:54:49.030Z,3.65
2024-02-19T23:57:16.006Z,3.35
2024-02-19T23:59:45.087Z,2.35
